createdAt,value
2022-09-18T00:00:00.618Z,1000.98
2022-09-18T00:01:00.528Z,1000.97
2022-09-18T00:02:00.562Z,1000.99
2022-09-18T00:03:00.578Z,1000.98
2022-09-18T00:04:00.496Z,1000.98
2022-09-18T00:05:00.503Z,1000.98
2022-09-18T00:06:00.484Z,1000.99
2022-09-18T00:07:00.473Z,1000.88
2022-09-18T00:08:00.474Z,1000.90
2022-09-18T00:09:00.540Z,1000.92
2022-09-18T00:10:00.457Z,1000.86
2022-09-18T00:11:00.447Z,1000.90
2022-09-18T00:12:00.437Z,1000.93
2022-09-18T00:13:00.431Z,1000.92
2022-09-18T00:14:00.423Z,1000.92
2022-09-18T00:15:00.421Z,1000.88
2022-09-18T00:16:00.575Z,1000.93
2022-09-18T00:17:00.397Z,1000.92
2022-09-18T00:18:00.396Z,1000.89
2022-09-18T00:19:00.379Z,1000.97
2022-09-18T00:20:00.410Z,1000.94
2022-09-18T00:21:00.363Z,1000.99
2022-09-18T00:22:00.366Z,1000.93
2022-09-18T00:23:00.348Z,1000.98
2022-09-18T00:24:00.398Z,1000.97
2022-09-18T00:25:00.348Z,1001.04
2022-09-18T00:26:00.332Z,1000.99
2022-09-18T00:27:00.326Z,1001.04
2022-09-18T00:28:00.326Z,1001.05
2022-09-18T00:29:00.314Z,1001.03
2022-09-18T00:30:00.297Z,1001.01
2022-09-18T00:31:00.304Z,1001.06
2022-09-18T00:32:00.376Z,1001.07
2022-09-18T00:33:00.272Z,1001.10
2022-09-18T00:34:00.272Z,1001.06
2022-09-18T00:35:00.263Z,1001.10
2022-09-18T00:36:00.250Z,1000.99
2022-09-18T00:37:00.241Z,1001.07
2022-09-18T00:38:00.235Z,1001.05
2022-09-18T00:39:00.341Z,1001.11
2022-09-18T00:40:00.250Z,1001.10
2022-09-18T00:41:00.212Z,1001.14
2022-09-18T00:42:00.202Z,1001.14
2022-09-18T00:43:00.188Z,1001.08
2022-09-18T00:44:00.186Z,1001.12
2022-09-18T00:45:00.192Z,1001.15
2022-09-18T00:46:00.176Z,1001.12
2022-09-18T00:47:00.162Z,1001.12
2022-09-18T00:48:00.246Z,1001.11
2022-09-18T00:49:00.147Z,1001.12
2022-09-18T00:50:00.202Z,1001.11
2022-09-18T00:51:00.132Z,1001.12
2022-09-18T00:52:00.156Z,1001.11
2022-09-18T00:53:00.124Z,1001.14
2022-09-18T00:54:00.148Z,1001.22
2022-09-18T00:55:00.109Z,1001.11
2022-09-18T00:56:00.094Z,1001.12
2022-09-18T00:57:00.079Z,1001.11
2022-09-18T00:58:00.077Z,1001.16
2022-09-18T00:59:00.072Z,1001.11
2022-09-18T01:00:00.060Z,1001.04
2022-09-18T01:01:00.100Z,1001.06
2022-09-18T01:02:00.111Z,1001.12
2022-09-18T01:03:00.041Z,1001.08
2022-09-18T01:04:00.105Z,1001.10
2022-09-18T01:05:00.028Z,1001.13
2022-09-18T01:06:00.011Z,1001.14
2022-09-18T01:07:00.000Z,1001.09
2022-09-18T01:08:00.000Z,1001.13
2022-09-18T01:08:59.988Z,1001.13
2022-09-18T01:09:59.988Z,1001.12
2022-09-18T01:10:59.969Z,1001.17
2022-09-18T01:11:59.963Z,1001.15
2022-09-18T01:12:59.962Z,1001.16
2022-09-18T01:13:59.943Z,1001.18
2022-09-18T01:14:59.950Z,1001.20
2022-09-18T01:15:59.977Z,1001.22
2022-09-18T01:16:59.921Z,1001.21
2022-09-18T01:17:59.914Z,1001.21
2022-09-18T01:18:59.906Z,1001.20
2022-09-18T01:19:59.982Z,1001.16
2022-09-18T01:20:59.887Z,1001.21
2022-09-18T01:21:59.884Z,1001.19
2022-09-18T01:22:59.874Z,1001.21
2022-09-18T01:23:59.868Z,1001.20
2022-09-18T01:24:59.858Z,1001.18
2022-09-18T01:25:59.845Z,1001.18
2022-09-18T01:26:59.850Z,1001.20
2022-09-18T01:29:31.463Z,1001.21
2022-09-18T01:30:31.444Z,1001.19
2022-09-18T01:32:35.660Z,1001.17
2022-09-18T01:33:35.644Z,1001.21
2022-09-18T01:35:42.233Z,1001.19
2022-09-18T01:36:39.619Z,1001.23
2022-09-18T01:38:32.723Z,1001.24
2022-09-18T01:39:32.706Z,1001.21
2022-09-18T01:41:36.695Z,1001.27
2022-09-18T01:42:36.679Z,1001.28
2022-09-18T01:44:40.688Z,1001.28
2022-09-18T01:45:40.674Z,1001.25
2022-09-18T01:47:44.653Z,1001.29
2022-09-18T01:48:44.641Z,1001.31
2022-09-18T01:50:48.719Z,1001.34
2022-09-18T01:51:48.622Z,1001.32
2022-09-18T01:53:52.615Z,1001.33
2022-09-18T01:54:52.594Z,1001.34
2022-09-18T01:56:45.692Z,1001.34
2022-09-18T01:57:45.675Z,1001.33
2022-09-18T01:59:38.576Z,1001.32
2022-09-18T02:00:38.563Z,1001.34
2022-09-18T02:02:31.759Z,1001.36
2022-09-18T02:03:31.645Z,1001.36
2022-09-18T02:05:35.614Z,1001.38
2022-09-18T02:06:35.684Z,1001.36
2022-09-18T02:08:39.594Z,1001.43
2022-09-18T02:09:39.576Z,1001.44
2022-09-18T02:11:43.586Z,1001.44
2022-09-18T02:12:43.566Z,1001.38
2022-09-18T02:14:36.660Z,1001.43
2022-09-18T02:15:36.651Z,1001.42
2022-09-18T02:17:29.750Z,1001.36
2022-09-18T02:18:29.735Z,1001.40
2022-09-18T02:20:33.733Z,1001.38
2022-09-18T02:21:33.724Z,1001.42
2022-09-18T02:23:37.791Z,1001.39
2022-09-18T02:24:37.690Z,1001.42
2022-09-18T02:26:30.790Z,1001.40
2022-09-18T02:27:30.771Z,1001.41
2022-09-18T02:29:23.688Z,1001.42
2022-09-18T02:30:23.663Z,1001.45
2022-09-18T02:32:27.688Z,1001.44
2022-09-18T02:33:27.670Z,1001.43
2022-09-18T02:35:31.647Z,1001.45
2022-09-18T02:36:31.630Z,1001.46
2022-09-18T02:38:35.603Z,1001.45
2022-09-18T02:39:35.666Z,1001.45
2022-09-18T02:41:39.571Z,1001.49
2022-09-18T02:42:39.548Z,1001.44
2022-09-18T02:44:43.523Z,1001.47
2022-09-18T02:45:43.514Z,1001.42
2022-09-18T02:47:47.519Z,1001.48
2022-09-18T02:48:47.582Z,1001.45
2022-09-18T02:50:51.525Z,1001.45
2022-09-18T02:51:51.523Z,1001.44
2022-09-18T02:53:55.503Z,1001.52
2022-09-18T02:54:55.570Z,1001.48
2022-09-18T02:56:59.474Z,1001.53
2022-09-18T02:57:59.452Z,1001.50
2022-09-18T03:00:03.436Z,1001.53
2022-09-18T03:01:03.424Z,1001.50
2022-09-18T03:03:07.433Z,1001.58
2022-09-18T03:04:07.416Z,1001.53
2022-09-18T03:06:11.406Z,1001.64
2022-09-18T03:07:11.387Z,1001.60
2022-09-18T03:09:04.335Z,1001.66
2022-09-18T03:10:04.372Z,1001.47
2022-09-18T03:11:57.377Z,1001.68
2022-09-18T03:12:57.359Z,1001.67
2022-09-18T03:15:01.346Z,1001.70
2022-09-18T03:16:01.372Z,1001.66
2022-09-18T03:18:05.338Z,1001.68
2022-09-18T03:19:05.318Z,1001.70
2022-09-18T03:21:09.293Z,1001.71
2022-09-18T03:22:09.283Z,1001.78
2022-09-18T03:24:13.268Z,1001.75
2022-09-18T03:25:13.336Z,1001.80
2022-09-18T03:27:17.239Z,1001.81
2022-09-18T03:28:17.218Z,1001.77
2022-09-18T03:30:10.603Z,1001.80
2022-09-18T03:31:10.627Z,1001.81
2022-09-18T03:33:14.565Z,1001.82
2022-09-18T03:34:14.544Z,1001.77
2022-09-18T03:36:07.640Z,1001.85
2022-09-18T03:37:07.628Z,1001.85
2022-09-18T03:39:00.620Z,1001.85
2022-09-18T03:40:00.701Z,1001.83
2022-09-18T03:41:53.734Z,1001.87
2022-09-18T03:42:53.631Z,1001.90
2022-09-18T03:44:46.722Z,1001.89
2022-09-18T03:45:46.712Z,1001.93
2022-09-18T03:47:50.690Z,1001.90
2022-09-18T03:48:50.703Z,1001.91
2022-09-18T03:50:54.672Z,1001.90
2022-09-18T03:51:54.658Z,1001.93
2022-09-18T03:53:47.757Z,1001.91
2022-09-18T03:54:47.739Z,1001.91
2022-09-18T03:56:51.721Z,1001.93
2022-09-18T03:57:51.790Z,1001.97
2022-09-18T03:59:55.690Z,1002.00
2022-09-18T04:00:55.684Z,1001.98
2022-09-18T04:02:59.709Z,1002.02
2022-09-18T04:03:59.634Z,1002.06
2022-09-18T04:06:03.623Z,1002.09
2022-09-18T04:07:03.607Z,1001.98
2022-09-18T04:08:56.508Z,1002.08
2022-09-18T04:09:56.494Z,1002.08
2022-09-18T04:12:00.471Z,1002.10
2022-09-18T04:13:00.534Z,1002.08
2022-09-18T04:14:53.610Z,1002.07
2022-09-18T04:15:53.680Z,1002.07
2022-09-18T04:17:57.575Z,1002.15
2022-09-18T04:18:57.551Z,1002.15
2022-09-18T04:21:01.541Z,1002.16
2022-09-18T04:22:01.533Z,1002.11
2022-09-18T04:24:05.556Z,1002.12
2022-09-18T04:25:05.543Z,1002.12
2022-09-18T04:27:09.545Z,1002.14
2022-09-18T04:28:09.620Z,1002.15
2022-09-18T04:30:02.653Z,1002.19
2022-09-18T04:31:02.623Z,1002.18
2022-09-18T04:33:06.598Z,1002.18
2022-09-18T04:34:06.565Z,1002.21
2022-09-18T04:36:10.555Z,1002.25
2022-09-18T04:37:10.736Z,1002.21
2022-09-18T04:39:03.458Z,1002.25
2022-09-18T04:40:03.462Z,1002.25
2022-09-18T04:42:07.420Z,1002.27
2022-09-18T04:43:07.408Z,1002.25
2022-09-18T04:45:11.486Z,1002.31
2022-09-18T04:46:11.450Z,1002.31
2022-09-18T04:48:15.393Z,1002.25
2022-09-18T04:49:15.374Z,1002.24
2022-09-18T04:51:19.396Z,1002.28
2022-09-18T04:52:19.367Z,1002.31
2022-09-18T04:54:23.326Z,1002.31
2022-09-18T04:55:23.334Z,1002.27
2022-09-18T04:57:16.447Z,1002.27
2022-09-18T04:58:16.429Z,1002.28
2022-09-18T05:00:20.595Z,1002.29
2022-09-18T05:01:20.579Z,1002.32
2022-09-18T05:03:13.618Z,1002.27
2022-09-18T05:04:13.600Z,1002.34
2022-09-18T05:06:17.589Z,1002.36
2022-09-18T05:07:17.572Z,1002.33
2022-09-18T05:09:10.480Z,1002.38
2022-09-18T05:10:10.479Z,1002.39
2022-09-18T05:12:14.471Z,1002.33
2022-09-18T05:13:14.456Z,1002.39
2022-09-18T05:15:18.422Z,1002.37
2022-09-18T05:16:18.550Z,1002.37
2022-09-18T05:17:18.401Z,1002.39
2022-09-18T05:18:18.394Z,1002.39
2022-09-18T05:19:18.386Z,1002.35
2022-09-18T05:20:18.373Z,1002.37
2022-09-18T05:21:18.369Z,1002.39
2022-09-18T05:22:18.367Z,1002.40
2022-09-18T05:23:18.356Z,1002.43
2022-09-18T05:24:18.347Z,1002.48
2022-09-18T05:25:18.337Z,1002.52
2022-09-18T05:26:18.325Z,1002.49
2022-09-18T05:27:18.317Z,1002.49
2022-09-18T05:28:18.310Z,1002.40
2022-09-18T05:29:18.300Z,1002.47
2022-09-18T05:30:18.293Z,1002.52
2022-09-18T05:31:18.334Z,1002.54
2022-09-18T05:32:18.360Z,1002.54
2022-09-18T05:33:18.267Z,1002.57
2022-09-18T05:34:18.260Z,1002.59
2022-09-18T05:35:18.254Z,1002.62
2022-09-18T05:36:18.243Z,1002.60
2022-09-18T05:37:18.234Z,1002.62
2022-09-18T05:38:18.227Z,1002.63
2022-09-18T05:39:18.218Z,1002.66
2022-09-18T05:40:18.263Z,1002.65
2022-09-18T05:41:18.201Z,1002.68
2022-09-18T05:42:18.194Z,1002.65
2022-09-18T05:43:18.190Z,1002.65
2022-09-18T05:44:18.175Z,1002.69
2022-09-18T05:45:18.168Z,1002.70
2022-09-18T05:46:18.193Z,1002.67
2022-09-18T05:47:18.155Z,1002.71
2022-09-18T05:48:18.227Z,1002.69
2022-09-18T05:49:18.133Z,1002.70
2022-09-18T05:50:18.128Z,1002.76
2022-09-18T05:51:18.123Z,1002.77
2022-09-18T05:52:18.109Z,1002.76
2022-09-18T05:53:18.104Z,1002.79
2022-09-18T05:54:18.094Z,1002.77
2022-09-18T05:55:18.086Z,1002.76
2022-09-18T05:56:18.079Z,1002.75
2022-09-18T05:57:18.068Z,1002.77
2022-09-18T05:58:18.058Z,1002.78
2022-09-18T05:59:18.050Z,1002.77
2022-09-18T06:00:18.043Z,1002.79
2022-09-18T06:01:18.034Z,1002.80
2022-09-18T06:02:18.087Z,1002.84
2022-09-18T06:03:18.069Z,1002.74
2022-09-18T06:04:18.098Z,1002.83
2022-09-18T06:05:18.001Z,1002.88
2022-09-18T06:06:17.997Z,1002.92
2022-09-18T06:07:17.984Z,1002.93
2022-09-18T06:08:17.982Z,1002.92
2022-09-18T06:09:17.968Z,1002.93
2022-09-18T06:10:17.960Z,1002.89
2022-09-18T06:11:17.954Z,1002.88
2022-09-18T06:12:17.945Z,1002.90
2022-09-18T06:13:17.936Z,1002.90
2022-09-18T06:14:17.927Z,1002.87
2022-09-18T06:15:17.920Z,1002.96
2022-09-18T06:16:18.006Z,1002.90
2022-09-18T06:17:17.904Z,1002.91
2022-09-18T06:18:17.895Z,1002.88
2022-09-18T06:19:17.886Z,1002.95
2022-09-18T06:20:17.960Z,1002.95
2022-09-18T06:21:17.873Z,1002.93
2022-09-18T06:22:17.864Z,1002.96
2022-09-18T06:23:17.856Z,1002.96
2022-09-18T06:24:17.850Z,1002.99
2022-09-18T06:25:17.893Z,1002.98
2022-09-18T06:26:17.837Z,1003.02
2022-09-18T06:27:17.828Z,1002.97
2022-09-18T06:28:17.820Z,1003.04
2022-09-18T06:29:17.812Z,1003.04
2022-09-18T06:30:17.804Z,1003.01
2022-09-18T06:31:17.846Z,1003.06
2022-09-18T06:32:17.792Z,1003.03
2022-09-18T06:33:17.783Z,1003.08
2022-09-18T06:34:17.779Z,1002.99
2022-09-18T06:35:17.771Z,1003.02
2022-09-18T06:36:17.847Z,1003.05
2022-09-18T06:37:17.756Z,1003.06
2022-09-18T06:38:17.749Z,1003.04
2022-09-18T06:39:17.743Z,1003.03
2022-09-18T06:40:17.776Z,1003.04
2022-09-18T06:41:17.730Z,1003.00
2022-09-18T06:42:17.721Z,1003.08
2022-09-18T06:43:17.716Z,1003.06
2022-09-18T06:44:17.709Z,1003.06
2022-09-18T06:45:17.719Z,1003.08
2022-09-18T06:46:17.742Z,1003.11
2022-09-18T06:47:17.690Z,1003.10
2022-09-18T06:48:17.684Z,1003.09
2022-09-18T06:49:17.674Z,1003.12
2022-09-18T06:50:17.670Z,1003.08
2022-09-18T06:51:17.663Z,1003.06
2022-09-18T06:52:17.741Z,1003.05
2022-09-18T06:53:17.647Z,1003.12
2022-09-18T06:54:17.641Z,1003.07
2022-09-18T06:55:17.646Z,1003.10
2022-09-18T06:56:17.630Z,1003.05
2022-09-18T06:57:17.622Z,1003.05
2022-09-18T06:58:17.618Z,1003.06
2022-09-18T06:59:17.609Z,1003.09
2022-09-18T07:00:17.603Z,1003.14
2022-09-18T07:01:17.709Z,1003.09
2022-09-18T07:02:19.771Z,1003.09
2022-09-18T07:03:17.585Z,1003.17
2022-09-18T07:04:17.578Z,1003.17
2022-09-18T07:05:17.570Z,1003.17
2022-09-18T07:06:17.562Z,1003.20
2022-09-18T07:07:17.557Z,1003.16
2022-09-18T07:08:17.626Z,1003.19
2022-09-18T07:09:17.540Z,1003.20
2022-09-18T07:10:17.534Z,1003.18
2022-09-18T07:11:17.530Z,1003.14
2022-09-18T07:12:17.521Z,1003.22
2022-09-18T07:13:17.513Z,1003.15
2022-09-18T07:14:17.506Z,1003.14
2022-09-18T07:15:17.500Z,1003.17
2022-09-18T07:16:17.545Z,1003.20
2022-09-18T07:17:19.218Z,1003.23
2022-09-18T07:18:17.477Z,1003.20
2022-09-18T07:19:17.471Z,1003.23
2022-09-18T07:20:17.463Z,1003.17
2022-09-18T07:21:17.455Z,1003.26
2022-09-18T07:22:17.449Z,1003.24
2022-09-18T07:23:17.442Z,1003.21
2022-09-18T07:24:17.519Z,1003.18
2022-09-18T07:25:17.426Z,1003.17
2022-09-18T07:26:17.421Z,1003.21
2022-09-18T07:27:17.413Z,1003.18
2022-09-18T07:28:17.405Z,1003.22
2022-09-18T07:29:17.399Z,1003.21
2022-09-18T07:30:24.585Z,1003.20
2022-09-18T07:32:21.371Z,1003.16
2022-09-18T07:33:21.355Z,1003.19
2022-09-18T07:35:14.612Z,1003.17
2022-09-18T07:36:14.594Z,1003.23
2022-09-18T07:38:18.613Z,1003.19
2022-09-18T07:39:18.562Z,1003.23
2022-09-18T07:41:11.563Z,1003.21
2022-09-18T07:42:11.464Z,1003.22
2022-09-18T07:44:15.444Z,1003.30
2022-09-18T07:45:15.430Z,1003.22
2022-09-18T07:47:19.439Z,1003.27
2022-09-18T07:48:19.421Z,1003.30
2022-09-18T07:50:23.602Z,1003.29
2022-09-18T07:51:26.305Z,1003.27
2022-09-18T07:53:27.370Z,1003.22
2022-09-18T07:54:27.354Z,1003.24
2022-09-18T07:56:20.711Z,1003.25
2022-09-18T07:57:20.612Z,1003.19
2022-09-18T07:59:24.600Z,1003.27
2022-09-18T08:00:24.590Z,1003.17
2022-09-18T08:02:17.641Z,1003.22
2022-09-18T08:03:17.613Z,1003.21
2022-09-18T08:05:21.497Z,1003.26
2022-09-18T08:06:21.479Z,1003.18
2022-09-18T08:08:25.497Z,1003.23
2022-09-18T08:09:25.488Z,1003.19
2022-09-18T08:11:18.395Z,1003.16
2022-09-18T08:12:18.465Z,1003.20
2022-09-18T08:14:11.480Z,1003.10
2022-09-18T08:15:11.461Z,1003.02
2022-09-18T08:17:04.418Z,1003.10
2022-09-18T08:18:04.405Z,1003.07
2022-09-18T08:20:08.424Z,1003.10
2022-09-18T08:21:10.688Z,1003.12
2022-09-18T08:23:12.380Z,1003.18
2022-09-18T08:24:12.371Z,1003.14
2022-09-18T08:26:21.452Z,1003.13
2022-09-18T08:27:16.397Z,1003.14
2022-09-18T08:29:20.469Z,1003.11
2022-09-18T08:30:20.403Z,1003.11
2022-09-18T08:32:24.365Z,1003.07
2022-09-18T08:33:24.356Z,1003.10
2022-09-18T08:35:17.272Z,1003.09
2022-09-18T08:36:17.252Z,1003.05
2022-09-18T08:37:17.245Z,1003.10
2022-09-18T08:38:17.242Z,1003.10
2022-09-18T08:39:17.231Z,1003.06
2022-09-18T08:40:17.267Z,1003.10
2022-09-18T08:41:17.219Z,1003.03
2022-09-18T08:42:17.210Z,1003.06
2022-09-18T08:43:17.204Z,1003.11
2022-09-18T08:44:17.197Z,1003.05
2022-09-18T08:45:17.277Z,1003.01
2022-09-18T08:46:17.238Z,1003.04
2022-09-18T08:47:17.175Z,1002.99
2022-09-18T08:48:17.170Z,1003.07
2022-09-18T08:49:17.166Z,1002.94
2022-09-18T08:50:17.155Z,1003.06
2022-09-18T08:51:17.151Z,1003.00
2022-09-18T08:52:17.143Z,1003.16
2022-09-18T08:53:17.136Z,1003.11
2022-09-18T08:54:17.128Z,1003.06
2022-09-18T08:55:17.124Z,1003.03
2022-09-18T08:56:17.115Z,1003.12
2022-09-18T08:57:17.149Z,1003.08
2022-09-18T08:58:17.102Z,1003.04
2022-09-18T08:59:17.096Z,1003.16
2022-09-18T09:00:17.088Z,1003.05
2022-09-18T09:01:17.249Z,1003.13
2022-09-18T09:02:17.306Z,1003.13
2022-09-18T09:03:17.068Z,1003.07
2022-09-18T09:04:17.062Z,1003.20
2022-09-18T09:05:17.052Z,1003.14
2022-09-18T09:06:17.045Z,1003.14
2022-09-18T09:07:17.043Z,1003.12
2022-09-18T09:08:17.036Z,1003.16
2022-09-18T09:09:21.246Z,1003.13
2022-09-18T09:10:17.020Z,1003.11
2022-09-18T09:11:17.017Z,1003.15
2022-09-18T09:12:17.011Z,1003.10
2022-09-18T09:13:17.006Z,1003.11
2022-09-18T09:14:16.998Z,1003.09
2022-09-18T09:15:21.370Z,1003.14
2022-09-18T09:16:17.091Z,1003.24
2022-09-18T09:17:17.062Z,1003.10
2022-09-18T09:18:16.972Z,1003.07
2022-09-18T09:19:16.968Z,1003.08
2022-09-18T09:20:16.961Z,1003.05
2022-09-18T09:21:16.956Z,1003.11
2022-09-18T09:22:16.947Z,1003.06
2022-09-18T09:23:16.942Z,1002.98
2022-09-18T09:24:16.935Z,1003.02
2022-09-18T09:25:16.932Z,1002.95
2022-09-18T09:26:16.924Z,1002.97
2022-09-18T09:27:16.921Z,1003.08
2022-09-18T09:28:17.052Z,1003.01
2022-09-18T09:29:16.906Z,1002.98
2022-09-18T09:30:16.987Z,1003.05
2022-09-18T09:31:16.924Z,1003.06
2022-09-18T09:32:16.888Z,1003.03
2022-09-18T09:33:16.967Z,1003.02
2022-09-18T09:34:16.877Z,1003.13
2022-09-18T09:35:16.869Z,1003.05
2022-09-18T09:36:16.865Z,1003.01
2022-09-18T09:37:16.859Z,1003.08
2022-09-18T09:38:16.853Z,1003.01
2022-09-18T09:39:16.847Z,1003.01
2022-09-18T09:40:16.983Z,1003.02
2022-09-18T09:41:16.835Z,1003.03
2022-09-18T09:42:16.830Z,1003.04
2022-09-18T09:43:16.823Z,1003.04
2022-09-18T09:44:16.820Z,1003.01
2022-09-18T09:45:16.813Z,1003.05
2022-09-18T09:46:20.760Z,1002.98
2022-09-18T09:47:16.881Z,1002.98
2022-09-18T09:48:16.797Z,1002.96
2022-09-18T09:49:16.871Z,1002.85
2022-09-18T09:50:16.837Z,1002.93
2022-09-18T09:51:16.801Z,1002.90
2022-09-18T09:52:16.770Z,1002.90
2022-09-18T09:53:16.764Z,1002.91
2022-09-18T09:54:16.762Z,1002.98
2022-09-18T09:55:16.753Z,1003.00
2022-09-18T09:56:16.746Z,1003.00
2022-09-18T09:57:16.741Z,1003.01
2022-09-18T09:58:16.734Z,1002.99
2022-09-18T09:59:16.729Z,1003.00
2022-09-18T10:00:16.779Z,1002.99
2022-09-18T10:01:16.777Z,1003.01
2022-09-18T10:02:16.770Z,1003.06
2022-09-18T10:03:16.705Z,1003.04
2022-09-18T10:04:16.697Z,1003.03
2022-09-18T10:05:16.773Z,1003.04
2022-09-18T10:06:16.686Z,1003.08
2022-09-18T10:07:16.681Z,1002.98
2022-09-18T10:08:16.674Z,1002.97
2022-09-18T10:09:16.672Z,1003.03
2022-09-18T10:10:16.661Z,1002.98
2022-09-18T10:11:16.661Z,1002.95
2022-09-18T10:12:16.650Z,1002.97
2022-09-18T10:13:16.648Z,1002.94
2022-09-18T10:14:16.639Z,1002.91
2022-09-18T10:15:16.634Z,1002.92
2022-09-18T10:16:16.716Z,1002.91
2022-09-18T10:17:16.626Z,1002.92
2022-09-18T10:18:16.676Z,1002.98
2022-09-18T10:19:16.613Z,1002.93
2022-09-18T10:20:16.604Z,1002.94
2022-09-18T10:21:16.599Z,1002.99
2022-09-18T10:22:16.592Z,1002.99
2022-09-18T10:23:16.587Z,1003.06
2022-09-18T10:24:16.580Z,1003.06
2022-09-18T10:25:16.574Z,1002.95
2022-09-18T10:26:16.569Z,1003.02
2022-09-18T10:27:16.565Z,1003.02
2022-09-18T10:28:16.561Z,1003.00
2022-09-18T10:29:16.551Z,1003.03
2022-09-18T10:30:16.544Z,1003.00
2022-09-18T10:31:16.614Z,1003.04
2022-09-18T10:32:16.533Z,1003.04
2022-09-18T10:33:16.529Z,1003.05
2022-09-18T10:34:16.520Z,1003.04
2022-09-18T10:35:16.515Z,1002.95
2022-09-18T10:36:16.509Z,1002.96
2022-09-18T10:37:16.587Z,1002.96
2022-09-18T10:38:16.497Z,1002.94
2022-09-18T10:39:16.494Z,1003.00
2022-09-18T10:40:16.562Z,1002.91
2022-09-18T10:41:16.479Z,1002.91
2022-09-18T10:42:16.470Z,1002.92
2022-09-18T10:43:16.469Z,1002.91
2022-09-18T10:44:16.460Z,1002.92
2022-09-18T10:45:16.455Z,1002.89
2022-09-18T10:46:16.477Z,1002.93
2022-09-18T10:47:16.445Z,1002.85
2022-09-18T10:48:16.445Z,1002.97
2022-09-18T10:49:16.432Z,1003.06
2022-09-18T10:50:16.425Z,1003.06
2022-09-18T10:51:16.422Z,1003.07
2022-09-18T10:52:16.415Z,1003.00
2022-09-18T10:53:16.495Z,1002.98
2022-09-18T10:54:16.402Z,1002.98
2022-09-18T10:55:16.396Z,1002.95
2022-09-18T10:56:16.389Z,1002.93
2022-09-18T10:57:16.382Z,1002.89
2022-09-18T10:58:16.380Z,1002.95
2022-09-18T10:59:16.372Z,1002.92
2022-09-18T11:00:16.367Z,1002.90
2022-09-18T11:01:16.429Z,1002.93
2022-09-18T11:02:16.476Z,1002.88
2022-09-18T11:03:16.351Z,1002.91
2022-09-18T11:04:16.341Z,1002.87
2022-09-18T11:05:16.337Z,1002.84
2022-09-18T11:06:16.330Z,1002.82
2022-09-18T11:07:16.325Z,1002.85
2022-09-18T11:08:16.318Z,1002.84
2022-09-18T11:09:16.403Z,1002.80
2022-09-18T11:10:16.305Z,1002.80
2022-09-18T11:11:16.301Z,1002.80
2022-09-18T11:12:16.294Z,1002.80
2022-09-18T11:13:16.289Z,1002.78
2022-09-18T11:14:16.282Z,1002.73
2022-09-18T11:15:16.275Z,1002.80
2022-09-18T11:16:16.335Z,1002.76
2022-09-18T11:17:16.267Z,1002.76
2022-09-18T11:18:16.257Z,1002.79
2022-09-18T11:19:16.250Z,1002.82
2022-09-18T11:20:16.247Z,1002.77
2022-09-18T11:21:16.239Z,1002.79
2022-09-18T11:22:16.234Z,1002.82
2022-09-18T11:23:16.226Z,1002.82
2022-09-18T11:24:16.221Z,1002.86
2022-09-18T11:25:16.298Z,1002.90
2022-09-18T11:26:16.209Z,1002.86
2022-09-18T11:27:16.204Z,1002.90
2022-09-18T11:28:16.198Z,1002.92
2022-09-18T11:29:16.191Z,1002.90
2022-09-18T11:30:16.185Z,1002.89
2022-09-18T11:31:16.253Z,1002.88
2022-09-18T11:32:16.174Z,1002.85
2022-09-18T11:33:16.166Z,1002.87
2022-09-18T11:34:16.160Z,1002.77
2022-09-18T11:35:16.154Z,1002.80
2022-09-18T11:36:16.149Z,1002.82
2022-09-18T11:37:16.143Z,1002.77
2022-09-18T11:38:16.134Z,1002.72
2022-09-18T11:39:16.129Z,1002.71
2022-09-18T11:40:16.171Z,1002.71
2022-09-18T11:41:16.200Z,1002.66
2022-09-18T11:42:16.114Z,1002.66
2022-09-18T11:43:16.107Z,1002.69
2022-09-18T11:44:16.105Z,1002.68
2022-09-18T11:45:16.094Z,1002.61
2022-09-18T11:46:16.109Z,1002.63
2022-09-18T11:47:16.086Z,1002.65
2022-09-18T11:48:16.077Z,1002.60
2022-09-18T11:49:16.070Z,1002.56
2022-09-18T11:50:16.064Z,1002.55
2022-09-18T11:51:16.057Z,1002.56
2022-09-18T11:52:16.054Z,1002.53
2022-09-18T11:53:16.047Z,1002.47
2022-09-18T11:54:16.041Z,1002.48
2022-09-18T11:55:16.043Z,1002.42
2022-09-18T11:56:16.030Z,1002.40
2022-09-18T11:57:16.107Z,1002.42
2022-09-18T11:58:16.016Z,1002.38
2022-09-18T11:59:16.011Z,1002.49
2022-09-18T12:00:16.006Z,1002.48
2022-09-18T12:01:16.003Z,1002.52
2022-09-18T12:02:16.132Z,1002.63
2022-09-18T12:03:16.051Z,1002.53
2022-09-18T12:04:15.983Z,1002.64
2022-09-18T12:05:15.975Z,1002.60
2022-09-18T12:06:15.971Z,1002.67
2022-09-18T12:07:15.963Z,1002.66
2022-09-18T12:08:14.601Z,1002.66
2022-09-18T12:09:14.594Z,1002.63
2022-09-18T12:10:14.585Z,1002.54
2022-09-18T12:11:14.579Z,1002.61
2022-09-18T12:12:14.575Z,1002.55
2022-09-18T12:13:14.650Z,1002.53
2022-09-18T12:14:14.558Z,1002.54
2022-09-18T12:15:14.551Z,1002.54
2022-09-18T12:16:14.582Z,1002.58
2022-09-18T12:17:14.537Z,1002.51
2022-09-18T12:18:14.531Z,1002.57
2022-09-18T12:19:14.523Z,1002.60
2022-09-18T12:20:14.516Z,1002.57
2022-09-18T12:21:14.510Z,1002.56
2022-09-18T12:22:14.502Z,1002.59
2022-09-18T12:23:14.495Z,1002.53
2022-09-18T12:24:14.488Z,1002.50
2022-09-18T12:25:14.483Z,1002.53
2022-09-18T12:26:14.473Z,1002.44
2022-09-18T12:27:14.469Z,1002.44
2022-09-18T12:28:14.460Z,1002.37
2022-09-18T12:29:14.539Z,1002.37
2022-09-18T12:30:14.444Z,1002.35
2022-09-18T12:31:14.508Z,1002.36
2022-09-18T12:32:14.432Z,1002.34
2022-09-18T12:33:14.424Z,1002.33
2022-09-18T12:34:14.416Z,1002.31
2022-09-18T12:35:14.411Z,1002.33
2022-09-18T12:36:14.405Z,1002.31
2022-09-18T12:37:14.396Z,1002.29
2022-09-18T12:38:14.389Z,1002.28
2022-09-18T12:39:15.054Z,1002.26
2022-09-18T12:40:15.122Z,1002.22
2022-09-18T12:41:15.039Z,1002.24
2022-09-18T12:42:15.033Z,1002.25
2022-09-18T12:43:15.025Z,1002.19
2022-09-18T12:44:15.020Z,1002.19
2022-09-18T12:45:15.094Z,1002.15
2022-09-18T12:46:15.053Z,1002.12
2022-09-18T12:47:14.997Z,1002.15
2022-09-18T12:48:14.990Z,1002.17
2022-09-18T12:49:14.984Z,1002.15
2022-09-18T12:50:14.975Z,1002.16
2022-09-18T12:51:14.970Z,1002.14
2022-09-18T12:52:14.966Z,1002.13
2022-09-18T12:53:14.956Z,1002.16
2022-09-18T12:54:14.949Z,1002.13
2022-09-18T12:55:14.943Z,1002.14
2022-09-18T12:56:14.935Z,1002.12
2022-09-18T12:57:14.930Z,1002.08
2022-09-18T12:58:14.923Z,1002.10
2022-09-18T12:59:14.915Z,1002.09
2022-09-18T13:00:14.912Z,1002.08
2022-09-18T13:01:15.038Z,1002.08
2022-09-18T13:02:14.934Z,1002.04
2022-09-18T13:03:14.981Z,1002.04
2022-09-18T13:04:14.884Z,1002.19
2022-09-18T13:05:14.875Z,1002.09
2022-09-18T13:06:14.869Z,1002.14
2022-09-18T13:07:14.861Z,1002.34
2022-09-18T13:08:14.854Z,1002.22
2022-09-18T13:09:14.848Z,1002.16
2022-09-18T13:10:14.844Z,1002.16
2022-09-18T13:11:14.854Z,1002.11
2022-09-18T13:12:14.829Z,1002.13
2022-09-18T13:13:14.824Z,1002.08
2022-09-18T13:14:14.814Z,1002.19
2022-09-18T13:15:14.807Z,1002.19
2022-09-18T13:16:15.577Z,1002.13
2022-09-18T13:17:15.608Z,1002.17
2022-09-18T13:18:15.520Z,1002.20
2022-09-18T13:19:15.514Z,1002.19
2022-09-18T13:20:15.508Z,1002.17
2022-09-18T13:21:15.500Z,1002.28
2022-09-18T13:22:15.492Z,1002.24
2022-09-18T13:23:15.487Z,1002.30
2022-09-18T13:24:15.479Z,1002.28
2022-09-18T13:25:15.473Z,1002.29
2022-09-18T13:26:15.468Z,1002.26
2022-09-18T13:27:15.459Z,1002.35
2022-09-18T13:28:15.453Z,1002.26
2022-09-18T13:29:15.443Z,1002.33
2022-09-18T13:30:22.607Z,1002.30
2022-09-18T13:32:19.516Z,1002.29
2022-09-18T13:33:19.404Z,1002.22
2022-09-18T13:35:12.317Z,1002.26
2022-09-18T13:36:12.299Z,1002.31
2022-09-18T13:37:12.292Z,1002.26
2022-09-18T13:38:12.286Z,1002.26
2022-09-18T13:39:12.282Z,1002.20
2022-09-18T13:40:12.465Z,1002.14
2022-09-18T13:41:12.266Z,1002.15
2022-09-18T13:42:12.258Z,1002.12
2022-09-18T13:43:12.252Z,1002.15
2022-09-18T13:44:12.245Z,1002.12
2022-09-18T13:45:12.239Z,1002.24
2022-09-18T13:46:12.333Z,1002.22